Christine Anderson — WCN2606 — position and weather

sailwx.info

Track history (hours):
 
Tides and Currents Weather Stations Pressure Air Temp Water Temp Dewpoint Dewpoint Depression Visibility Wind Speed Wind Dir Waves Ship Positions

Christine Anderson

Owner: PIERCE, COUNTY OF, TACOMA, WA. More information available from US FCC via Universal Licensing System and Coast Guard Vessel Documentation Center.

Last reported at 2015-Nov-30 21:18 UTC. Time now 2016-Feb-11 15:00 UTC.
Position N 47°11' W 122°36'.
Warning: this ship's position is months out of date.

MMSI: 366659730.

Date/timePositionNaut miles runAvg speedWind from/ knotsBaromVisibWave heightAir tempDewpointWater temp
2015-Nov-30 21:18N 47°11' W 122°36'3 3.5
2015-Nov-30 20:33N 47°11' W 122°40'0 0.2
2015-Nov-30 18:29N 47°11' W 122°41'0 0.5
2015-Nov-30 17:33N 47°11' W 122°40'0 0.1
2015-Nov-30 16:33N 47°11' W 122°40'0 0.2
2015-Nov-30 15:33N 47°11' W 122°40'2 2.5
2015-Nov-30 14:33N 47°10' W 122°36'0 0.0
2015-Nov-30 05:28N 47°10' W 122°36'0 0.0
2015-Nov-30 04:33N 47°10' W 122°36'0 0.4
2015-Nov-30 03:33N 47°11' W 122°37'0 0.0
2015-Nov-30 02:33N 47°11' W 122°37'3 2.2
2015-Nov-30 01:25N 47°11' W 122°40'0 0.1
2015-Nov-30 00:32N 47°11' W 122°41'0 0.0
2015-Nov-29 23:27N 47°11' W 122°41'0 0.1
2015-Nov-29 22:26N 47°11' W 122°40'3 3.3
2015-Nov-29 21:33N 47°10' W 122°36'3 2.6
2015-Nov-29 20:33N 47°11' W 122°40'0 0.1
2015-Nov-29 18:33N 47°11' W 122°40'0 0.3
2015-Nov-29 17:32N 47°11' W 122°40'0 0.1
2015-Nov-29 16:32N 47°11' W 122°40'0 0.2
2015-Nov-29 15:33N 47°11' W 122°40'2 2.4
2015-Nov-29 14:33N 47°10' W 122°36'2 0.3
2015-Nov-29 06:33N 47°11' W 122°40'2 2.3
2015-Nov-29 05:30N 47°10' W 122°36'0 0.0
2015-Nov-29 04:24N 47°10' W 122°36'0 0.0
2015-Nov-29 03:20N 47°10' W 122°36'0 0.5
2015-Nov-29 02:33N 47°11' W 122°37'3 2.7
2015-Nov-29 01:33N 47°11' W 122°41'0 0.0
2015-Nov-29 00:33N 47°11' W 122°41'0 0.0
2015-Nov-28 23:33N 47°11' W 122°41'0 0.0
2015-Nov-28 22:26N 47°11' W 122°41'3 3.4
2015-Nov-28 21:32N 47°10' W 122°36'3 2.9
2015-Nov-28 20:30N 47°11' W 122°41'3 3.2
2015-Nov-28 19:34N 47°10' W 122°36'3 3.0
2015-Nov-28 18:33N 47°11' W 122°41'0 0.3
2015-Nov-28 17:31N 47°11' W 122°40'0 0.1
2015-Nov-28 16:32N 47°11' W 122°40'0 0.0
2015-Nov-28 15:32N 47°11' W 122°40'3 2.5
2015-Nov-28 14:32N 47°10' W 122°36'3 0.3
2015-Nov-28 06:32N 47°11' W 122°40'3 2.4
2015-Nov-28 05:27N 47°10' W 122°36'0 0.0
2015-Nov-28 04:32N 47°10' W 122°36'0 0.2
2015-Nov-28 03:32N 47°11' W 122°36'0 0.3
2015-Nov-28 02:34N 47°11' W 122°37'3 2.6
2015-Nov-28 01:32N 47°11' W 122°41'0 0.0
2015-Nov-28 00:31N 47°11' W 122°41'0 0.0
2015-Nov-27 23:28N 47°11' W 122°41'0 0.0
2015-Nov-27 22:31N 47°11' W 122°41'3 2.3
2015-Nov-27 21:12N 47°10' W 122°36'3 4.8
2015-Nov-27 20:34N 47°11' W 122°41'0 0.2
2015-Nov-27 18:33N 47°11' W 122°40'0 0.3
2015-Nov-27 17:34N 47°11' W 122°40'0 0.3
2015-Nov-27 16:34N 47°11' W 122°40'0 0.1
2015-Nov-27 15:33N 47°11' W 122°40'2 2.3
2015-Nov-27 14:33N 47°11' W 122°37'0 0.4
2015-Nov-27 13:34N 47°10' W 122°36'0 0.0
2015-Nov-27 07:03N 47°10' W 122°36'2 5.0
2015-Nov-27 06:33N 47°11' W 122°40'2 2.3
2015-Nov-27 05:29N 47°10' W 122°36'0 0.0
2015-Nov-27 04:24N 47°10' W 122°36'0 0.0
2015-Nov-27 03:33N 47°10' W 122°36'0 0.1
2015-Nov-27 02:32N 47°11' W 122°36'3 3.0
2015-Nov-27 01:33N 47°11' W 122°41'0 0.0
2015-Nov-27 00:33N 47°11' W 122°41'0 0.0
2015-Nov-26 23:27N 47°11' W 122°41'0 0.0
2015-Nov-26 22:28N 47°11' W 122°41'3 2.6
2015-Nov-26 21:19N 47°10' W 122°36'3 4.0
2015-Nov-26 20:33N 47°11' W 122°41'0 0.0
2015-Nov-26 18:33N 47°11' W 122°41'1 0.5
2015-Nov-26 17:33N 47°11' W 122°40'0 0.0
2015-Nov-26 16:32N 47°11' W 122°40'0 0.1
2015-Nov-26 15:33N 47°11' W 122°40'2 2.1
2015-Nov-26 14:25N 47°10' W 122°36'0 0.0
2015-Nov-26 04:25N 47°10' W 122°36'0 0.1
2015-Nov-26 03:28N 47°10' W 122°36'0 0.1
2015-Nov-26 02:28N 47°10' W 122°36'1 1.2
2015-Nov-26 01:33N 47°11' W 122°38'1 1.5
2015-Nov-26 00:33N 47°11' W 122°40'0 0.4
2015-Nov-25 23:33N 47°11' W 122°41'0 0.0
2015-Nov-25 22:33N 47°11' W 122°41'3 2.8
2015-Nov-25 21:28N 47°10' W 122°36'3 3.3
2015-Nov-25 20:33N 47°11' W 122°41'1 0.3
2015-Nov-25 18:33N 47°11' W 122°40'0 0.2
2015-Nov-25 17:33N 47°11' W 122°40'0 0.2
2015-Nov-25 16:33N 47°11' W 122°40'0 0.0
2015-Nov-25 15:33N 47°11' W 122°40'2 2.3
2015-Nov-25 14:33N 47°11' W 122°36'0 0.1
2015-Nov-25 13:31N 47°10' W 122°36'0 0.0
2015-Nov-25 04:17N 47°10' W 122°36'0 0.3
2015-Nov-25 03:32N 47°11' W 122°36'0 0.1
2015-Nov-25 02:32N 47°10' W 122°36'3 2.9
2015-Nov-25 01:33N 47°11' W 122°40'0 0.1
2015-Nov-24 23:31N 47°11' W 122°41'0 0.0
2015-Nov-24 22:33N 47°11' W 122°41'3 2.7
2015-Nov-24 21:25N 47°10' W 122°36'3 3.3
2015-Nov-24 20:33N 47°11' W 122°40'3 2.5
2015-Nov-24 19:25N 47°10' W 122°36'3 3.2
2015-Nov-24 18:28N 47°11' W 122°41'0 0.0
2015-Nov-24 17:33N 47°11' W 122°41'0 0.1
2015-Nov-24 16:33N 47°11' W 122°40'0 0.2
2015-Nov-24 15:32N 47°11' W 122°40'3 2.8
2015-Nov-24 14:33N 47°10' W 122°36'0 0.0
2015-Nov-24 13:32N 47°10' W 122°36'0 0.0
2015-Nov-24 04:20N 47°10' W 122°36'0 0.2
2015-Nov-24 03:33N 47°11' W 122°36'0 0.1
2015-Nov-24 02:33N 47°11' W 122°36'3 2.9
2015-Nov-24 01:33N 47°11' W 122°40'0 0.1
2015-Nov-24 00:31N 47°11' W 122°41'0 0.0
2015-Nov-23 23:31N 47°11' W 122°41'0 0.0
2015-Nov-23 22:29N 47°11' W 122°41'0 0.3
2015-Nov-23 20:33N 47°11' W 122°40'0 0.1
2015-Nov-23 18:33N 47°11' W 122°40'0 0.1
2015-Nov-23 17:33N 47°11' W 122°40'0 0.2
2015-Nov-23 16:33N 47°11' W 122°40'0 0.1
2015-Nov-23 15:33N 47°11' W 122°40'2 2.3
2015-Nov-23 14:33N 47°11' W 122°36'0 0.1
2015-Nov-23 13:33N 47°10' W 122°36'1 0.1
2015-Nov-23 05:34N 47°10' W 122°37'1 0.8
2015-Nov-23 04:33N 47°10' W 122°36'0 0.4
2015-Nov-23 03:33N 47°11' W 122°37'0 0.2
2015-Nov-23 02:33N 47°11' W 122°36'3 2.8
2015-Nov-23 01:33N 47°11' W 122°41'0 0.0
2015-Nov-23 00:33N 47°11' W 122°41'0 0.0
2015-Nov-22 23:33N 47°11' W 122°41'0 0.0
2015-Nov-22 22:29N 47°11' W 122°41'3 2.9
2015-Nov-22 21:27N 47°10' W 122°36'3 3.1
2015-Nov-22 20:33N 47°11' W 122°40'3 2.7
2015-Nov-22 19:31N 47°10' W 122°36'2 2.5
2015-Nov-22 18:33N 47°11' W 122°40'0 0.2
2015-Nov-22 17:32N 47°11' W 122°40'0 0.0
2015-Nov-22 16:32N 47°11' W 122°40'0 0.2
2015-Nov-22 15:33N 47°11' W 122°40'2 2.4
2015-Nov-22 14:33N 47°10' W 122°36'3 0.3
2015-Nov-22 06:33N 47°11' W 122°40'3 2.3
2015-Nov-22 05:27N 47°10' W 122°36'0 0.0
2015-Nov-22 04:18N 47°10' W 122°36'0 0.4
2015-Nov-22 03:33N 47°11' W 122°37'0 0.0
2015-Nov-22 00:12N 47°10' W 122°37'3 3.7
2015-Nov-21 23:30N 47°11' W 122°41'0 0.0
2015-Nov-21 22:32N 47°11' W 122°41'3 2.9
2015-Nov-21 21:28N 47°10' W 122°36'3 2.9
2015-Nov-21 20:33N 47°11' W 122°40'0 0.1
2015-Nov-21 18:33N 47°11' W 122°40'0 0.1
2015-Nov-21 17:33N 47°11' W 122°40'0 0.0
2015-Nov-21 16:33N 47°11' W 122°40'0 0.0
2015-Nov-21 15:33N 47°11' W 122°40'2 2.4
2015-Nov-21 14:33N 47°10' W 122°36'2 0.3
2015-Nov-21 06:33N 47°11' W 122°40'2 2.3
2015-Nov-21 05:31N 47°10' W 122°36'0 0.0
2015-Nov-21 04:34N 47°10' W 122°36'0 0.0
2015-Nov-21 03:33N 47°10' W 122°36'0 0.0
2015-Nov-21 02:33N 47°10' W 122°36'2 1.8
2015-Nov-21 01:33N 47°11' W 122°39'1 0.8
2015-Nov-21 00:33N 47°11' W 122°40'0 0.4
2015-Nov-20 23:32N 47°11' W 122°41'0 0.0
2015-Nov-20 22:31N 47°11' W 122°41'3 2.8
2015-Nov-20 21:26N 47°10' W 122°36'  
Track history (hours):
 
Tides and Currents Weather Stations Pressure Air Temp Water Temp Dewpoint Dewpoint Depression Visibility Wind Speed Wind Dir Waves Ship Positions

Christine Anderson

Owner: PIERCE, COUNTY OF, TACOMA, WA. More information available from US FCC via Universal Licensing System and Coast Guard Vessel Documentation Center.

Last reported at 2015-Nov-30 21:18 UTC. Time now 2016-Feb-11 15:00 UTC.
Position N 47°11' W 122°36'.
Warning: this ship's position is months out of date.

MMSI: 366659730.

Date/timePositionNaut miles runAvg speedWind from/ knotsBaromVisibWave heightAir tempDewpointWater temp
2015-Nov-30 21:18N 47°11' W 122°36'3 3.5
2015-Nov-30 20:33N 47°11' W 122°40'0 0.2
2015-Nov-30 18:29N 47°11' W 122°41'0 0.5
2015-Nov-30 17:33N 47°11' W 122°40'0 0.1
2015-Nov-30 16:33N 47°11' W 122°40'0 0.2
2015-Nov-30 15:33N 47°11' W 122°40'2 2.5
2015-Nov-30 14:33N 47°10' W 122°36'0 0.0
2015-Nov-30 05:28N 47°10' W 122°36'0 0.0
2015-Nov-30 04:33N 47°10' W 122°36'0 0.4
2015-Nov-30 03:33N 47°11' W 122°37'0 0.0
2015-Nov-30 02:33N 47°11' W 122°37'3 2.2
2015-Nov-30 01:25N 47°11' W 122°40'0 0.1
2015-Nov-30 00:32N 47°11' W 122°41'0 0.0
2015-Nov-29 23:27N 47°11' W 122°41'0 0.1
2015-Nov-29 22:26N 47°11' W 122°40'3 3.3
2015-Nov-29 21:33N 47°10' W 122°36'3 2.6
2015-Nov-29 20:33N 47°11' W 122°40'0 0.1
2015-Nov-29 18:33N 47°11' W 122°40'0 0.3
2015-Nov-29 17:32N 47°11' W 122°40'0 0.1
2015-Nov-29 16:32N 47°11' W 122°40'0 0.2
2015-Nov-29 15:33N 47°11' W 122°40'2 2.4
2015-Nov-29 14:33N 47°10' W 122°36'2 0.3
2015-Nov-29 06:33N 47°11' W 122°40'2 2.3
2015-Nov-29 05:30N 47°10' W 122°36'0 0.0
2015-Nov-29 04:24N 47°10' W 122°36'0 0.0
2015-Nov-29 03:20N 47°10' W 122°36'0 0.5
2015-Nov-29 02:33N 47°11' W 122°37'3 2.7
2015-Nov-29 01:33N 47°11' W 122°41'0 0.0
2015-Nov-29 00:33N 47°11' W 122°41'0 0.0
2015-Nov-28 23:33N 47°11' W 122°41'0 0.0
2015-Nov-28 22:26N 47°11' W 122°41'3 3.4
2015-Nov-28 21:32N 47°10' W 122°36'3 2.9
2015-Nov-28 20:30N 47°11' W 122°41'3 3.2
2015-Nov-28 19:34N 47°10' W 122°36'3 3.0
2015-Nov-28 18:33N 47°11' W 122°41'0 0.3
2015-Nov-28 17:31N 47°11' W 122°40'0 0.1
2015-Nov-28 16:32N 47°11' W 122°40'0 0.0
2015-Nov-28 15:32N 47°11' W 122°40'3 2.5
2015-Nov-28 14:32N 47°10' W 122°36'3 0.3
2015-Nov-28 06:32N 47°11' W 122°40'3 2.4
2015-Nov-28 05:27N 47°10' W 122°36'0 0.0
2015-Nov-28 04:32N 47°10' W 122°36'0 0.2
2015-Nov-28 03:32N 47°11' W 122°36'0 0.3
2015-Nov-28 02:34N 47°11' W 122°37'3 2.6
2015-Nov-28 01:32N 47°11' W 122°41'0 0.0
2015-Nov-28 00:31N 47°11' W 122°41'0 0.0
2015-Nov-27 23:28N 47°11' W 122°41'0 0.0
2015-Nov-27 22:31N 47°11' W 122°41'3 2.3
2015-Nov-27 21:12N 47°10' W 122°36'3 4.8
2015-Nov-27 20:34N 47°11' W 122°41'0 0.2
2015-Nov-27 18:33N 47°11' W 122°40'0 0.3
2015-Nov-27 17:34N 47°11' W 122°40'0 0.3
2015-Nov-27 16:34N 47°11' W 122°40'0 0.1
2015-Nov-27 15:33N 47°11' W 122°40'2 2.3
2015-Nov-27 14:33N 47°11' W 122°37'0 0.4
2015-Nov-27 13:34N 47°10' W 122°36'0 0.0
2015-Nov-27 07:03N 47°10' W 122°36'2 5.0
2015-Nov-27 06:33N 47°11' W 122°40'2 2.3
2015-Nov-27 05:29N 47°10' W 122°36'0 0.0
2015-Nov-27 04:24N 47°10' W 122°36'0 0.0
2015-Nov-27 03:33N 47°10' W 122°36'0 0.1
2015-Nov-27 02:32N 47°11' W 122°36'3 3.0
2015-Nov-27 01:33N 47°11' W 122°41'0 0.0
2015-Nov-27 00:33N 47°11' W 122°41'0 0.0
2015-Nov-26 23:27N 47°11' W 122°41'0 0.0
2015-Nov-26 22:28N 47°11' W 122°41'3 2.6
2015-Nov-26 21:19N 47°10' W 122°36'3 4.0
2015-Nov-26 20:33N 47°11' W 122°41'0 0.0
2015-Nov-26 18:33N 47°11' W 122°41'1 0.5
2015-Nov-26 17:33N 47°11' W 122°40'0 0.0
2015-Nov-26 16:32N 47°11' W 122°40'0 0.1
2015-Nov-26 15:33N 47°11' W 122°40'2 2.1
2015-Nov-26 14:25N 47°10' W 122°36'0 0.0
2015-Nov-26 04:25N 47°10' W 122°36'0 0.1
2015-Nov-26 03:28N 47°10' W 122°36'0 0.1
2015-Nov-26 02:28N 47°10' W 122°36'1 1.2
2015-Nov-26 01:33N 47°11' W 122°38'1 1.5
2015-Nov-26 00:33N 47°11' W 122°40'0 0.4
2015-Nov-25 23:33N 47°11' W 122°41'0 0.0
2015-Nov-25 22:33N 47°11' W 122°41'3 2.8
2015-Nov-25 21:28N 47°10' W 122°36'3 3.3
2015-Nov-25 20:33N 47°11' W 122°41'1 0.3
2015-Nov-25 18:33N 47°11' W 122°40'0 0.2
2015-Nov-25 17:33N 47°11' W 122°40'0 0.2
2015-Nov-25 16:33N 47°11' W 122°40'0 0.0
2015-Nov-25 15:33N 47°11' W 122°40'2 2.3
2015-Nov-25 14:33N 47°11' W 122°36'0 0.1
2015-Nov-25 13:31N 47°10' W 122°36'0 0.0
2015-Nov-25 04:17N 47°10' W 122°36'0 0.3
2015-Nov-25 03:32N 47°11' W 122°36'0 0.1
2015-Nov-25 02:32N 47°10' W 122°36'3 2.9
2015-Nov-25 01:33N 47°11' W 122°40'0 0.1
2015-Nov-24 23:31N 47°11' W 122°41'0 0.0
2015-Nov-24 22:33N 47°11' W 122°41'3 2.7
2015-Nov-24 21:25N 47°10' W 122°36'3 3.3
2015-Nov-24 20:33N 47°11' W 122°40'3 2.5
2015-Nov-24 19:25N 47°10' W 122°36'3 3.2
2015-Nov-24 18:28N 47°11' W 122°41'0 0.0
2015-Nov-24 17:33N 47°11' W 122°41'0 0.1
2015-Nov-24 16:33N 47°11' W 122°40'0 0.2
2015-Nov-24 15:32N 47°11' W 122°40'3 2.8
2015-Nov-24 14:33N 47°10' W 122°36'0 0.0
2015-Nov-24 13:32N 47°10' W 122°36'0 0.0
2015-Nov-24 04:20N 47°10' W 122°36'0 0.2
2015-Nov-24 03:33N 47°11' W 122°36'0 0.1
2015-Nov-24 02:33N 47°11' W 122°36'3 2.9
2015-Nov-24 01:33N 47°11' W 122°40'0 0.1
2015-Nov-24 00:31N 47°11' W 122°41'0 0.0
2015-Nov-23 23:31N 47°11' W 122°41'0 0.0
2015-Nov-23 22:29N 47°11' W 122°41'0 0.3
2015-Nov-23 20:33N 47°11' W 122°40'0 0.1
2015-Nov-23 18:33N 47°11' W 122°40'0 0.1
2015-Nov-23 17:33N 47°11' W 122°40'0 0.2
2015-Nov-23 16:33N 47°11' W 122°40'0 0.1
2015-Nov-23 15:33N 47°11' W 122°40'2 2.3
2015-Nov-23 14:33N 47°11' W 122°36'0 0.1
2015-Nov-23 13:33N 47°10' W 122°36'1 0.1
2015-Nov-23 05:34N 47°10' W 122°37'1 0.8
2015-Nov-23 04:33N 47°10' W 122°36'0 0.4
2015-Nov-23 03:33N 47°11' W 122°37'0 0.2
2015-Nov-23 02:33N 47°11' W 122°36'3 2.8
2015-Nov-23 01:33N 47°11' W 122°41'0 0.0
2015-Nov-23 00:33N 47°11' W 122°41'0 0.0
2015-Nov-22 23:33N 47°11' W 122°41'0 0.0
2015-Nov-22 22:29N 47°11' W 122°41'3 2.9
2015-Nov-22 21:27N 47°10' W 122°36'3 3.1
2015-Nov-22 20:33N 47°11' W 122°40'3 2.7
2015-Nov-22 19:31N 47°10' W 122°36'2 2.5
2015-Nov-22 18:33N 47°11' W 122°40'0 0.2
2015-Nov-22 17:32N 47°11' W 122°40'0 0.0
2015-Nov-22 16:32N 47°11' W 122°40'0 0.2
2015-Nov-22 15:33N 47°11' W 122°40'2 2.4
2015-Nov-22 14:33N 47°10' W 122°36'3 0.3
2015-Nov-22 06:33N 47°11' W 122°40'3 2.3
2015-Nov-22 05:27N 47°10' W 122°36'0 0.0
2015-Nov-22 04:18N 47°10' W 122°36'0 0.4
2015-Nov-22 03:33N 47°11' W 122°37'0 0.0
2015-Nov-22 00:12N 47°10' W 122°37'3 3.7
2015-Nov-21 23:30N 47°11' W 122°41'0 0.0
2015-Nov-21 22:32N 47°11' W 122°41'3 2.9
2015-Nov-21 21:28N 47°10' W 122°36'3 2.9
2015-Nov-21 20:33N 47°11' W 122°40'0 0.1
2015-Nov-21 18:33N 47°11' W 122°40'0 0.1
2015-Nov-21 17:33N 47°11' W 122°40'0 0.0
2015-Nov-21 16:33N 47°11' W 122°40'0 0.0
2015-Nov-21 15:33N 47°11' W 122°40'2 2.4
2015-Nov-21 14:33N 47°10' W 122°36'2 0.3
2015-Nov-21 06:33N 47°11' W 122°40'2 2.3
2015-Nov-21 05:31N 47°10' W 122°36'0 0.0
2015-Nov-21 04:34N 47°10' W 122°36'0 0.0
2015-Nov-21 03:33N 47°10' W 122°36'0 0.0
2015-Nov-21 02:33N 47°10' W 122°36'2 1.8
2015-Nov-21 01:33N 47°11' W 122°39'1 0.8
2015-Nov-21 00:33N 47°11' W 122°40'0 0.4
2015-Nov-20 23:32N 47°11' W 122°41'0 0.0
2015-Nov-20 22:31N 47°11' W 122°41'3 2.8
2015-Nov-20 21:26N 47°10' W 122°36'  

Dump ship's entire track history